createdAt,value
2017-10-20T00:02:21.698Z,58.00
2017-10-20T00:04:49.183Z,56.30
2017-10-20T00:07:16.686Z,54.70
2017-10-20T00:09:44.158Z,57.13
2017-10-20T00:12:11.616Z,56.30
2017-10-20T00:14:39.125Z,54.87
2017-10-20T00:17:06.588Z,57.17
2017-10-20T00:19:34.058Z,48.07
2017-10-20T00:22:01.558Z,58.90
2017-10-20T00:24:29.034Z,58.20
2017-10-20T00:26:56.526Z,63.50
2017-10-20T00:29:24.005Z,61.20
2017-10-20T00:31:51.512Z,56.60
2017-10-20T00:34:18.992Z,56.43
2017-10-20T00:36:46.483Z,54.60
2017-10-20T00:39:14.006Z,54.03
2017-10-20T00:41:41.470Z,56.90
2017-10-20T00:44:08.990Z,54.73
2017-10-20T00:46:36.488Z,62.03
2017-10-20T00:49:03.987Z,58.40
2017-10-20T00:51:31.500Z,53.17
2017-10-20T00:53:58.995Z,51.63
2017-10-20T00:56:26.524Z,56.37
2017-10-20T00:58:54.036Z,49.47
2017-10-20T01:01:21.584Z,54.60
2017-10-20T01:03:49.055Z,54.17
2017-10-20T01:06:16.530Z,59.37
2017-10-20T01:08:43.990Z,55.60
2017-10-20T01:11:11.466Z,48.13
2017-10-20T01:13:38.971Z,57.33
2017-10-20T01:16:06.467Z,51.97
2017-10-20T01:18:33.974Z,49.57
2017-10-20T01:21:01.490Z,50.93
2017-10-20T01:23:28.978Z,54.70
2017-10-20T01:25:56.473Z,48.57
2017-10-20T01:28:24.032Z,56.30
2017-10-20T01:30:51.550Z,61.50
2017-10-20T01:33:19.033Z,51.60
2017-10-20T01:35:46.558Z,63.90
2017-10-20T01:38:14.061Z,65.77
2017-10-20T01:40:41.582Z,64.67
2017-10-20T01:43:09.106Z,60.80
2017-10-20T01:45:36.609Z,67.00
2017-10-20T01:48:04.122Z,59.23
2017-10-20T01:50:31.645Z,52.70
2017-10-20T01:52:59.132Z,56.30
2017-10-20T01:55:26.623Z,53.37
2017-10-20T01:57:54.125Z,53.93
2017-10-20T02:00:21.662Z,50.63
2017-10-20T02:02:49.136Z,53.67
2017-10-20T02:05:16.690Z,49.87
2017-10-20T02:07:44.207Z,51.10
2017-10-20T02:10:11.685Z,52.20
2017-10-20T02:12:39.192Z,46.30
2017-10-20T02:15:06.681Z,49.33
2017-10-20T02:17:34.167Z,48.03
2017-10-20T02:20:01.673Z,41.20
2017-10-20T02:22:29.181Z,44.67
2017-10-20T02:24:56.683Z,52.77
2017-10-20T02:27:24.242Z,51.10
2017-10-20T02:29:51.799Z,53.50
2017-10-20T02:32:19.332Z,52.67
2017-10-20T02:34:46.852Z,55.23
2017-10-20T02:37:14.333Z,48.40
2017-10-20T02:39:41.806Z,52.67
2017-10-20T02:42:09.318Z,51.57
2017-10-20T02:44:36.826Z,48.33
2017-10-20T02:47:04.339Z,44.77
2017-10-20T02:49:31.855Z,46.60
2017-10-20T02:51:59.326Z,43.87
2017-10-20T02:54:26.817Z,42.67
2017-10-20T02:56:54.559Z,44.43
2017-10-20T02:59:22.031Z,48.93
2017-10-20T03:01:49.490Z,45.10
2017-10-20T03:04:16.994Z,39.97
2017-10-20T03:06:44.517Z,45.03
2017-10-20T03:09:11.990Z,49.53
2017-10-20T03:11:39.507Z,52.93
2017-10-20T03:14:07.000Z,55.10
2017-10-20T03:16:34.477Z,58.23
2017-10-20T03:19:02.449Z,59.20
2017-10-20T03:21:29.919Z,64.20
2017-10-20T03:23:57.410Z,58.93
2017-10-20T03:26:24.888Z,61.73
2017-10-20T03:28:52.345Z,56.03
2017-10-20T03:31:19.805Z,55.07
2017-10-20T03:33:47.304Z,55.87
2017-10-20T03:36:14.770Z,52.07
2017-10-20T03:38:42.247Z,51.33
2017-10-20T03:41:09.805Z,50.07
2017-10-20T03:43:37.266Z,47.50
2017-10-20T03:46:04.732Z,54.27
2017-10-20T03:48:32.266Z,46.20
2017-10-20T03:51:00.223Z,48.37
2017-10-20T03:53:27.705Z,46.17
2017-10-20T03:55:55.204Z,51.80
2017-10-20T03:58:22.694Z,46.47
2017-10-20T04:00:50.164Z,47.20
2017-10-20T04:03:17.687Z,47.83
2017-10-20T04:05:45.869Z,44.90
2017-10-20T04:08:13.338Z,50.37
2017-10-20T04:10:40.841Z,46.80
2017-10-20T04:13:08.363Z,45.27
2017-10-20T04:15:35.850Z,55.90
2017-10-20T04:18:03.428Z,44.97
2017-10-20T04:20:30.888Z,43.80
2017-10-20T04:22:58.353Z,39.30
2017-10-20T04:25:25.842Z,44.40
2017-10-20T04:27:53.312Z,41.07
2017-10-20T04:30:20.789Z,40.93
2017-10-20T04:32:48.319Z,41.10
2017-10-20T04:35:15.802Z,42.13
2017-10-20T04:37:43.279Z,41.47
2017-10-20T04:40:10.777Z,34.07
2017-10-20T04:42:38.258Z,35.10
2017-10-20T04:45:05.743Z,42.13
2017-10-20T04:47:33.445Z,40.83
2017-10-20T04:50:00.939Z,40.00
2017-10-20T04:52:28.417Z,42.80
2017-10-20T04:54:55.897Z,33.17
2017-10-20T04:57:23.377Z,43.63
2017-10-20T04:59:50.849Z,44.73
2017-10-20T05:02:18.318Z,39.90
2017-10-20T05:04:45.804Z,47.40
2017-10-20T05:07:13.279Z,37.27
2017-10-20T05:09:40.753Z,37.90
2017-10-20T05:12:08.252Z,43.20
2017-10-20T05:14:35.722Z,43.60
2017-10-20T05:17:03.198Z,40.23
2017-10-20T05:19:30.669Z,37.27
2017-10-20T05:21:58.160Z,35.83
2017-10-20T05:24:25.728Z,29.30
2017-10-20T05:26:53.230Z,41.47
2017-10-20T05:29:20.746Z,44.37
2017-10-20T05:31:48.241Z,40.27
2017-10-20T05:34:15.736Z,39.23
2017-10-20T05:36:43.233Z,33.53
2017-10-20T05:39:11.604Z,38.90
2017-10-20T05:41:39.076Z,37.00
2017-10-20T05:44:06.570Z,51.45
2017-10-20T05:46:34.062Z,50.00
2017-10-20T05:49:01.557Z,39.33
2017-10-20T05:51:29.050Z,37.40
2017-10-20T05:53:56.534Z,41.27
2017-10-20T05:56:24.015Z,41.40
2017-10-20T05:58:51.503Z,39.10
2017-10-20T06:01:19.985Z,44.87
2017-10-20T06:03:47.506Z,41.40
2017-10-20T06:06:15.001Z,40.03
2017-10-20T06:08:42.481Z,38.43
2017-10-20T06:11:09.936Z,31.97
2017-10-20T06:13:37.423Z,30.30
2017-10-20T06:16:05.388Z,39.33
2017-10-20T06:18:32.856Z,34.33
2017-10-20T06:21:00.333Z,31.27
2017-10-20T06:23:27.833Z,43.10
2017-10-20T06:25:55.293Z,40.63
2017-10-20T06:28:22.807Z,43.27
2017-10-20T06:30:50.348Z,38.57
2017-10-20T06:33:17.872Z,39.60
2017-10-20T06:35:45.360Z,39.30
2017-10-20T06:38:12.858Z,40.10
2017-10-20T06:40:40.338Z,38.87
2017-10-20T06:43:07.817Z,40.73
2017-10-20T06:45:35.294Z,38.77
2017-10-20T06:48:02.781Z,35.33
2017-10-20T06:50:30.241Z,45.93
2017-10-20T06:52:57.757Z,39.50
2017-10-20T06:55:25.234Z,37.53
2017-10-20T06:57:52.879Z,38.03
2017-10-20T07:00:20.397Z,38.33
2017-10-20T07:02:47.850Z,34.37
2017-10-20T07:05:15.358Z,37.17
2017-10-20T07:07:42.873Z,40.17
2017-10-20T07:10:10.398Z,42.47
2017-10-20T07:12:37.906Z,42.80
2017-10-20T07:15:05.383Z,37.20
2017-10-20T07:17:32.905Z,40.03
2017-10-20T07:20:00.376Z,36.33
2017-10-20T07:22:27.980Z,43.53
2017-10-20T07:24:55.463Z,41.33
2017-10-20T07:27:22.928Z,42.63
2017-10-20T07:29:50.422Z,35.50
2017-10-20T07:32:17.899Z,44.50
2017-10-20T07:34:45.385Z,42.33
2017-10-20T07:37:12.891Z,45.93
2017-10-20T07:39:40.356Z,39.40
2017-10-20T07:42:07.848Z,40.23
2017-10-20T07:44:35.344Z,42.30
2017-10-20T07:47:02.851Z,36.30
2017-10-20T07:49:30.331Z,35.90
2017-10-20T07:51:57.824Z,40.07
2017-10-20T07:54:25.349Z,39.07
2017-10-20T07:56:52.839Z,41.33
2017-10-20T07:59:20.328Z,37.60
2017-10-20T08:01:47.788Z,36.37
2017-10-20T08:04:15.278Z,37.87
2017-10-20T08:06:42.773Z,39.60
2017-10-20T08:09:10.237Z,38.57
2017-10-20T08:11:37.708Z,41.73
2017-10-20T08:14:05.216Z,39.03
2017-10-20T08:16:32.683Z,39.60
2017-10-20T08:19:00.160Z,38.67
2017-10-20T08:21:27.674Z,37.97
2017-10-20T08:23:55.172Z,45.37
2017-10-20T08:26:22.662Z,46.57
2017-10-20T08:28:50.146Z,47.40
2017-10-20T08:31:17.690Z,44.17
2017-10-20T08:33:45.195Z,40.97
2017-10-20T08:36:12.674Z,43.00
2017-10-20T08:38:40.187Z,44.37
2017-10-20T08:41:07.679Z,37.33
2017-10-20T08:43:35.188Z,42.23
2017-10-20T08:46:02.693Z,41.70
2017-10-20T08:48:30.192Z,44.50
2017-10-20T08:50:57.749Z,37.27
2017-10-20T08:53:25.241Z,41.77
2017-10-20T08:55:52.951Z,45.47
2017-10-20T08:58:20.450Z,44.00
2017-10-20T09:00:47.932Z,45.87
2017-10-20T09:03:15.400Z,47.50
2017-10-20T09:05:42.887Z,45.30
2017-10-20T09:08:10.429Z,43.93
2017-10-20T09:10:37.888Z,46.03
2017-10-20T09:13:05.367Z,42.60
2017-10-20T09:15:32.866Z,47.53
2017-10-20T09:18:00.328Z,43.07
2017-10-20T09:20:27.827Z,44.27
2017-10-20T09:22:55.306Z,43.43
2017-10-20T09:25:22.769Z,44.03
2017-10-20T09:27:50.254Z,44.13
2017-10-20T09:30:17.749Z,47.40
2017-10-20T09:32:45.236Z,45.97
2017-10-20T09:35:12.773Z,45.50
2017-10-20T09:37:40.237Z,46.80
2017-10-20T09:40:07.701Z,42.90
2017-10-20T09:42:35.188Z,44.67
2017-10-20T09:45:02.652Z,45.47
2017-10-20T09:47:30.115Z,47.77
2017-10-20T09:49:57.738Z,46.80
2017-10-20T09:52:25.208Z,47.70
2017-10-20T09:54:52.690Z,49.60
2017-10-20T09:57:20.197Z,47.20
2017-10-20T09:59:47.678Z,49.07
2017-10-20T10:02:15.146Z,49.30
2017-10-20T10:04:42.634Z,45.87
2017-10-20T10:07:10.108Z,46.33
2017-10-20T10:09:38.382Z,48.20
2017-10-20T10:12:05.860Z,52.53
2017-10-20T10:14:33.372Z,48.73
2017-10-20T10:17:00.860Z,49.80
2017-10-20T10:19:28.354Z,48.73
2017-10-20T10:21:55.849Z,53.80
2017-10-20T10:24:23.320Z,48.50
2017-10-20T10:26:50.838Z,49.40
2017-10-20T10:29:18.335Z,48.77
2017-10-20T10:31:45.826Z,49.77
2017-10-20T10:34:13.308Z,49.50
2017-10-20T10:36:40.879Z,48.00
2017-10-20T10:39:08.356Z,51.40
2017-10-20T10:41:35.850Z,50.50
2017-10-20T10:44:03.330Z,55.30
2017-10-20T10:46:30.829Z,54.60
2017-10-20T10:48:58.332Z,53.23
2017-10-20T10:51:25.840Z,57.87
2017-10-20T10:53:53.357Z,53.10
2017-10-20T10:56:20.878Z,51.43
2017-10-20T10:58:48.462Z,53.53
2017-10-20T11:01:15.950Z,53.60
2017-10-20T11:03:43.571Z,49.60
2017-10-20T11:06:22.879Z,55.23
2017-10-20T11:09:02.164Z,57.50
2017-10-20T11:11:41.536Z,49.27
2017-10-20T11:14:09.020Z,50.10
2017-10-20T11:16:36.549Z,47.53
2017-10-20T11:19:04.102Z,53.50
2017-10-20T11:21:31.586Z,51.17
2017-10-20T11:23:59.062Z,48.20
2017-10-20T11:26:26.519Z,48.00
2017-10-20T11:28:54.273Z,51.40
2017-10-20T11:31:21.758Z,50.33
2017-10-20T11:33:49.261Z,51.17
2017-10-20T11:36:16.750Z,52.30
2017-10-20T11:38:44.259Z,50.77
2017-10-20T11:41:11.740Z,48.57
2017-10-20T11:43:39.236Z,53.73
2017-10-20T11:46:06.750Z,55.97
2017-10-20T11:48:34.229Z,53.70
2017-10-20T11:51:02.466Z,57.20
2017-10-20T11:53:29.958Z,56.20
2017-10-20T11:55:57.468Z,58.10
2017-10-20T12:00:58.837Z,54.20
2017-10-20T12:03:26.323Z,55.50
2017-10-20T12:05:53.831Z,52.37
2017-10-20T12:08:21.319Z,52.27
2017-10-20T12:10:48.832Z,45.97
2017-10-20T12:13:16.315Z,53.27
2017-10-20T12:15:43.790Z,50.10
2017-10-20T12:18:11.296Z,54.03
2017-10-20T12:20:38.769Z,50.40
2017-10-20T12:23:06.240Z,49.27
2017-10-20T12:25:36.984Z,52.40
2017-10-20T12:28:04.533Z,54.50
2017-10-20T12:30:32.021Z,52.97
2017-10-20T12:32:59.506Z,53.73
2017-10-20T12:35:26.982Z,54.87
2017-10-20T12:37:54.457Z,55.30
2017-10-20T12:40:21.953Z,58.47
2017-10-20T12:42:49.450Z,52.10
2017-10-20T12:45:16.926Z,50.00
2017-10-20T12:47:44.419Z,52.73
2017-10-20T12:50:11.909Z,52.73
2017-10-20T12:52:39.379Z,54.47
2017-10-20T12:55:06.866Z,56.20
2017-10-20T12:57:34.368Z,56.97
2017-10-20T13:00:01.825Z,52.77
2017-10-20T13:02:29.306Z,55.87
2017-10-20T13:04:56.835Z,55.53
2017-10-20T13:07:24.345Z,57.33
2017-10-20T13:09:51.895Z,57.97
2017-10-20T13:12:19.388Z,59.13
2017-10-20T13:14:46.878Z,60.03
2017-10-20T13:17:14.351Z,61.17
2017-10-20T13:19:41.820Z,57.10
2017-10-20T13:22:09.301Z,60.67
2017-10-20T13:24:36.809Z,59.40
2017-10-20T13:27:04.292Z,59.87
2017-10-20T13:29:31.771Z,62.33
2017-10-20T13:31:59.295Z,58.73
2017-10-20T13:34:26.766Z,60.70
2017-10-20T13:36:54.256Z,57.00
2017-10-20T13:39:21.769Z,61.30
2017-10-20T13:41:49.242Z,59.97
2017-10-20T13:44:17.006Z,63.30
2017-10-20T13:46:44.538Z,63.80
2017-10-20T13:49:12.033Z,62.90
2017-10-20T13:51:39.522Z,58.97
2017-10-20T13:54:07.029Z,63.63
2017-10-20T13:56:34.553Z,58.87
2017-10-20T13:59:02.053Z,61.90
2017-10-20T14:01:29.560Z,63.80
2017-10-20T14:03:57.069Z,62.17
2017-10-20T14:06:24.616Z,68.37
2017-10-20T14:08:52.108Z,61.63
2017-10-20T14:11:19.586Z,67.83
2017-10-20T14:13:47.069Z,65.87
2017-10-20T14:16:14.576Z,64.27
2017-10-20T14:18:42.047Z,57.60
2017-10-20T14:21:09.526Z,59.93
2017-10-20T14:23:37.042Z,61.77
2017-10-20T14:26:04.538Z,55.87
2017-10-20T14:28:32.034Z,52.40
2017-10-20T14:30:59.576Z,62.23
2017-10-20T14:33:27.042Z,55.27
2017-10-20T14:35:54.512Z,59.80
2017-10-20T14:38:22.069Z,63.07
2017-10-20T14:40:49.554Z,60.90
2017-10-20T14:43:17.100Z,58.90
2017-10-20T14:45:44.590Z,59.10
2017-10-20T14:48:12.072Z,65.57
2017-10-20T14:50:39.546Z,56.80
2017-10-20T14:53:07.036Z,64.50
2017-10-20T14:55:34.528Z,64.33
2017-10-20T14:58:02.025Z,63.47
2017-10-20T15:00:29.569Z,61.13
2017-10-20T15:02:57.083Z,64.60
2017-10-20T15:05:24.584Z,73.57
2017-10-20T15:07:52.102Z,63.60
2017-10-20T15:10:19.707Z,65.23
2017-10-20T15:12:47.194Z,64.23
2017-10-20T15:15:14.737Z,67.83
2017-10-20T15:17:42.303Z,68.90
2017-10-20T15:20:09.787Z,70.93
2017-10-20T15:22:37.289Z,68.80
2017-10-20T15:25:04.776Z,73.40
2017-10-20T15:27:32.273Z,75.50
2017-10-20T15:29:59.868Z,75.47
2017-10-20T15:32:27.393Z,74.30
2017-10-20T15:34:54.866Z,68.93
2017-10-20T15:37:22.353Z,65.73
2017-10-20T15:39:49.860Z,71.53
2017-10-20T15:42:17.366Z,67.70
2017-10-20T15:44:44.895Z,68.00
2017-10-20T15:47:12.626Z,79.40
2017-10-20T15:49:40.147Z,80.43
2017-10-20T15:52:07.768Z,68.33
2017-10-20T15:54:35.250Z,76.70
2017-10-20T15:57:02.748Z,84.10
2017-10-20T15:59:30.294Z,78.60
2017-10-20T16:01:57.868Z,83.53
2017-10-20T16:04:25.368Z,78.53
2017-10-20T16:06:52.870Z,77.73
2017-10-20T16:09:20.364Z,75.97
2017-10-20T16:11:47.937Z,77.10
2017-10-20T16:14:15.477Z,68.77
2017-10-20T16:16:42.975Z,65.43
2017-10-20T16:19:10.490Z,72.70
2017-10-20T16:21:38.039Z,72.37
2017-10-20T16:24:05.548Z,76.97
2017-10-20T16:26:33.040Z,77.07
2017-10-20T16:29:00.571Z,70.63
2017-10-20T16:31:28.064Z,69.50
2017-10-20T16:33:55.568Z,79.90
2017-10-20T16:36:23.086Z,81.83
2017-10-20T16:38:50.666Z,74.57
2017-10-20T16:41:18.167Z,79.87
2017-10-20T16:43:45.706Z,80.40
2017-10-20T16:46:13.262Z,80.77
2017-10-20T16:48:40.755Z,85.37
2017-10-20T16:51:08.284Z,82.80
2017-10-20T16:53:35.790Z,83.27
2017-10-20T16:56:03.298Z,82.20
2017-10-20T16:58:30.823Z,89.17
2017-10-20T17:00:58.419Z,83.30
2017-10-20T17:03:25.936Z,88.47
2017-10-20T17:05:53.463Z,84.73
2017-10-20T17:08:20.962Z,73.50
2017-10-20T17:10:48.479Z,89.73
2017-10-20T17:13:16.023Z,98.70
2017-10-20T17:15:43.562Z,93.50
2017-10-20T17:18:11.051Z,89.47
2017-10-20T17:20:38.605Z,78.90
2017-10-20T17:23:06.116Z,89.70
2017-10-20T17:25:33.618Z,93.40
2017-10-20T17:28:01.149Z,92.00
2017-10-20T17:30:28.845Z,97.13
2017-10-20T17:32:56.368Z,89.27
2017-10-20T17:35:23.889Z,87.20
2017-10-20T17:37:51.410Z,80.60
2017-10-20T17:40:18.955Z,88.77
2017-10-20T17:42:46.492Z,82.63
2017-10-20T17:45:14.002Z,99.75
2017-10-20T17:47:41.514Z,88.30
2017-10-20T17:50:08.997Z,90.67
2017-10-20T17:52:36.526Z,90.47
2017-10-20T17:55:03.994Z,82.43
2017-10-20T17:57:31.497Z,90.40
2017-10-20T17:59:58.997Z,85.10
2017-10-20T18:02:26.509Z,86.80
2017-10-20T18:04:54.030Z,84.03
2017-10-20T18:07:21.528Z,84.87
2017-10-20T18:09:49.041Z,83.87
2017-10-20T18:12:16.568Z,89.53
2017-10-20T18:14:44.070Z,88.17
2017-10-20T18:17:11.539Z,97.20
2017-10-20T18:19:39.070Z,88.07
2017-10-20T18:22:06.566Z,93.67
2017-10-20T18:24:34.063Z,83.83
2017-10-20T18:27:01.567Z,91.40
2017-10-20T18:29:29.043Z,76.33
2017-10-20T18:31:56.549Z,87.63
2017-10-20T18:34:24.052Z,92.07
2017-10-20T18:36:51.589Z,83.57
2017-10-20T18:39:19.373Z,84.23
2017-10-20T18:41:47.087Z,79.43
2017-10-20T18:44:14.602Z,81.80
2017-10-20T18:46:42.151Z,69.37
2017-10-20T18:49:09.663Z,73.37
2017-10-20T18:51:37.139Z,70.30
2017-10-20T18:54:04.655Z,60.67
2017-10-20T18:56:32.199Z,70.23
2017-10-20T18:58:59.702Z,74.43
2017-10-20T19:01:27.186Z,74.27
2017-10-20T19:03:54.721Z,72.40
2017-10-20T19:06:22.203Z,71.50
2017-10-20T19:08:49.661Z,77.57
2017-10-20T19:11:17.160Z,73.50
2017-10-20T19:13:44.659Z,67.47
2017-10-20T19:16:12.168Z,78.60
2017-10-20T19:18:39.695Z,73.00
2017-10-20T19:21:07.182Z,74.27
2017-10-20T19:23:34.702Z,69.37
2017-10-20T19:26:02.222Z,67.30
2017-10-20T19:28:29.733Z,71.00
2017-10-20T19:30:57.234Z,69.63
2017-10-20T19:33:24.896Z,70.57
2017-10-20T19:35:52.377Z,66.37
2017-10-20T19:38:19.873Z,75.33
2017-10-20T19:40:48.062Z,72.30
2017-10-20T19:43:18.634Z,60.43
2017-10-20T19:45:46.222Z,66.60
2017-10-20T19:48:13.719Z,69.47
2017-10-20T19:50:41.185Z,68.90
2017-10-20T19:53:08.669Z,60.13
2017-10-20T19:55:36.167Z,66.07
2017-10-20T19:58:03.677Z,61.87
2017-10-20T20:00:31.176Z,57.97
2017-10-20T20:02:58.692Z,57.17
2017-10-20T20:05:26.205Z,63.23
2017-10-20T20:07:53.716Z,66.23
2017-10-20T20:10:21.209Z,65.67
2017-10-20T20:12:48.680Z,73.33
2017-10-20T20:15:16.212Z,68.73
2017-10-20T20:17:43.715Z,70.30
2017-10-20T20:20:11.229Z,62.97
2017-10-20T20:22:38.743Z,66.73
2017-10-20T20:25:06.266Z,60.60
2017-10-20T20:27:33.965Z,67.50
2017-10-20T20:30:01.453Z,70.20
2017-10-20T20:32:29.881Z,66.30
2017-10-20T20:34:57.376Z,76.17
2017-10-20T20:37:24.853Z,72.83
2017-10-20T20:39:52.346Z,73.43
2017-10-20T20:42:19.817Z,70.70
2017-10-20T20:44:47.278Z,78.33
2017-10-20T20:47:14.784Z,62.13
2017-10-20T20:49:42.296Z,75.80
2017-10-20T20:52:21.324Z,72.53
2017-10-20T20:54:48.811Z,78.70
2017-10-20T20:57:16.360Z,77.43
2017-10-20T20:59:44.496Z,70.47
2017-10-20T21:02:12.030Z,69.73
2017-10-20T21:04:39.527Z,70.10
2017-10-20T21:07:07.034Z,71.73
2017-10-20T21:09:34.556Z,64.73
2017-10-20T21:12:02.709Z,70.57
2017-10-20T21:14:30.206Z,69.90
2017-10-20T21:16:57.708Z,71.70
2017-10-20T21:19:25.219Z,65.77
2017-10-20T21:21:52.751Z,58.00
2017-10-20T21:24:20.332Z,72.10
2017-10-20T21:26:48.002Z,70.47
2017-10-20T21:29:15.504Z,60.40
2017-10-20T21:31:43.038Z,75.30
2017-10-20T21:34:10.605Z,63.70
2017-10-20T21:36:38.163Z,67.80
2017-10-20T21:39:05.655Z,65.27
2017-10-20T21:41:33.150Z,66.00
2017-10-20T21:44:00.665Z,66.63
2017-10-20T21:46:28.210Z,72.53
2017-10-20T21:48:55.705Z,77.00
2017-10-20T21:51:23.233Z,68.27
2017-10-20T21:53:50.756Z,72.27
2017-10-20T21:56:18.250Z,75.23
2017-10-20T21:58:45.761Z,72.33
2017-10-20T22:01:13.272Z,67.27
2017-10-20T22:03:40.798Z,73.10
2017-10-20T22:06:08.336Z,71.60
2017-10-20T22:08:35.832Z,76.70
2017-10-20T22:11:03.733Z,72.50
2017-10-20T22:13:31.249Z,77.97
2017-10-20T22:15:58.754Z,78.27
2017-10-20T22:18:26.268Z,83.50
2017-10-20T22:20:54.015Z,72.70
2017-10-20T22:23:21.544Z,79.20
2017-10-20T22:25:49.078Z,76.83
2017-10-20T22:28:16.591Z,82.70
2017-10-20T22:30:44.087Z,78.23
2017-10-20T22:33:11.583Z,69.77
2017-10-20T22:35:39.089Z,84.17
2017-10-20T22:38:06.606Z,77.00
2017-10-20T22:40:34.112Z,77.90
2017-10-20T22:43:01.633Z,84.30
2017-10-20T22:45:29.128Z,75.50
2017-10-20T22:47:56.621Z,88.10
2017-10-20T22:50:24.147Z,73.97
2017-10-20T22:52:51.675Z,86.50
2017-10-20T22:55:19.164Z,78.87
2017-10-20T22:57:46.659Z,81.00
2017-10-20T23:00:14.161Z,84.10
2017-10-20T23:02:41.669Z,88.27
2017-10-20T23:05:09.956Z,79.03
2017-10-20T23:07:37.468Z,75.60
2017-10-20T23:10:04.966Z,76.20
2017-10-20T23:12:32.489Z,80.37
2017-10-20T23:14:59.974Z,81.30
2017-10-20T23:17:27.465Z,78.03
2017-10-20T23:19:54.955Z,84.50
2017-10-20T23:22:22.440Z,81.93
2017-10-20T23:24:49.929Z,85.13
2017-10-20T23:27:17.393Z,72.17
2017-10-20T23:29:44.857Z,83.90
2017-10-20T23:32:12.351Z,80.70
2017-10-20T23:34:39.836Z,81.17
2017-10-20T23:37:07.319Z,79.70
2017-10-20T23:39:34.835Z,81.93
2017-10-20T23:42:02.334Z,71.83
2017-10-20T23:44:29.803Z,75.87
2017-10-20T23:46:57.297Z,87.57
2017-10-20T23:49:24.800Z,87.90
2017-10-20T23:51:52.276Z,71.97
2017-10-20T23:54:19.786Z,81.23
2017-10-20T23:56:47.269Z,77.00
2017-10-20T23:59:14.807Z,75.00
